sensor_id;sensor_type;location;lat;lon;timestamp;temperature;humidity
3051;DHT22;1535;51.098;6.414;2022-10-28T00:00:46;17.40;99.90
3051;DHT22;1535;51.098;6.414;2022-10-28T00:03:13;17.40;99.90
3051;DHT22;1535;51.098;6.414;2022-10-28T00:05:40;17.50;99.90
3051;DHT22;1535;51.098;6.414;2022-10-28T00:08:08;17.40;99.90
3051;DHT22;1535;51.098;6.414;2022-10-28T00:10:35;17.50;99.90
3051;DHT22;1535;51.098;6.414;2022-10-28T00:13:03;17.50;99.90
3051;DHT22;1535;51.098;6.414;2022-10-28T00:15:32;17.50;99.90
3051;DHT22;1535;51.098;6.414;2022-10-28T00:18:00;17.60;99.90
3051;DHT22;1535;51.098;6.414;2022-10-28T00:20:29;17.60;99.90
3051;DHT22;1535;51.098;6.414;2022-10-28T00:22:56;17.60;99.90
3051;DHT22;1535;51.098;6.414;2022-10-28T00:25:23;17.60;99.90
3051;DHT22;1535;51.098;6.414;2022-10-28T00:27:50;17.70;99.90
3051;DHT22;1535;51.098;6.414;2022-10-28T00:30:19;17.70;99.90
3051;DHT22;1535;51.098;6.414;2022-10-28T00:32:46;17.70;99.90
3051;DHT22;1535;51.098;6.414;2022-10-28T00:35:13;17.80;99.90
3051;DHT22;1535;51.098;6.414;2022-10-28T00:37:41;17.80;99.90
3051;DHT22;1535;51.098;6.414;2022-10-28T00:40:09;17.90;99.90
3051;DHT22;1535;51.098;6.414;2022-10-28T00:42:37;17.80;99.90
3051;DHT22;1535;51.098;6.414;2022-10-28T00:45:05;17.80;99.90
3051;DHT22;1535;51.098;6.414;2022-10-28T00:47:46;17.80;99.90
3051;DHT22;1535;51.098;6.414;2022-10-28T00:50:36;17.80;99.90
3051;DHT22;1535;51.098;6.414;2022-10-28T00:53:08;17.70;99.90
3051;DHT22;1535;51.098;6.414;2022-10-28T00:55:36;17.70;99.90
3051;DHT22;1535;51.098;6.414;2022-10-28T00:58:05;17.70;99.90
3051;DHT22;1535;51.098;6.414;2022-10-28T01:00:32;17.60;99.90
3051;DHT22;1535;51.098;6.414;2022-10-28T01:03:01;17.50;99.90
3051;DHT22;1535;51.098;6.414;2022-10-28T01:05:31;17.50;99.90
3051;DHT22;1535;51.098;6.414;2022-10-28T01:08:00;17.40;99.90
3051;DHT22;1535;51.098;6.414;2022-10-28T01:10:37;17.30;99.90
3051;DHT22;1535;51.098;6.414;2022-10-28T01:13:12;17.20;99.90
3051;DHT22;1535;51.098;6.414;2022-10-28T01:15:50;17.30;99.90
3051;DHT22;1535;51.098;6.414;2022-10-28T01:18:25;17.20;99.90
3051;DHT22;1535;51.098;6.414;2022-10-28T01:21:10;17.20;99.90
3051;DHT22;1535;51.098;6.414;2022-10-28T01:23:46;17.10;99.90
3051;DHT22;1535;51.098;6.414;2022-10-28T01:26:46;17.10;99.90
3051;DHT22;1535;51.098;6.414;2022-10-28T01:29:41;17.00;99.90
3051;DHT22;1535;51.098;6.414;2022-10-28T01:32:14;17.00;99.90
3051;DHT22;1535;51.098;6.414;2022-10-28T01:34:51;16.90;99.90
3051;DHT22;1535;51.098;6.414;2022-10-28T01:37:29;16.90;99.90
3051;DHT22;1535;51.098;6.414;2022-10-28T01:40:03;16.80;99.90
3051;DHT22;1535;51.098;6.414;2022-10-28T01:42:39;16.80;99.90
3051;DHT22;1535;51.098;6.414;2022-10-28T01:45:12;16.80;99.90
3051;DHT22;1535;51.098;6.414;2022-10-28T01:47:47;16.70;99.90
3051;DHT22;1535;51.098;6.414;2022-10-28T01:50:20;16.70;99.90
3051;DHT22;1535;51.098;6.414;2022-10-28T01:52:51;16.70;99.90
3051;DHT22;1535;51.098;6.414;2022-10-28T01:55:21;16.60;99.90
3051;DHT22;1535;51.098;6.414;2022-10-28T01:57:50;16.60;99.90
3051;DHT22;1535;51.098;6.414;2022-10-28T02:00:20;16.50;99.90
3051;DHT22;1535;51.098;6.414;2022-10-28T02:02:49;16.40;99.90
3051;DHT22;1535;51.098;6.414;2022-10-28T02:05:41;16.40;99.90
3051;DHT22;1535;51.098;6.414;2022-10-28T02:11:17;16.30;99.90
3051;DHT22;1535;51.098;6.414;2022-10-28T02:13:54;16.30;99.90
3051;DHT22;1535;51.098;6.414;2022-10-28T02:16:29;16.20;99.90
3051;DHT22;1535;51.098;6.414;2022-10-28T02:19:07;16.20;99.90
3051;DHT22;1535;51.098;6.414;2022-10-28T02:21:44;16.20;99.90
3051;DHT22;1535;51.098;6.414;2022-10-28T02:24:18;16.10;99.90
3051;DHT22;1535;51.098;6.414;2022-10-28T02:26:51;16.10;99.90
3051;DHT22;1535;51.098;6.414;2022-10-28T02:29:26;16.20;99.90
3051;DHT22;1535;51.098;6.414;2022-10-28T02:31:57;16.20;99.90
3051;DHT22;1535;51.098;6.414;2022-10-28T02:34:31;16.10;99.90
3051;DHT22;1535;51.098;6.414;2022-10-28T02:37:02;16.10;99.90
3051;DHT22;1535;51.098;6.414;2022-10-28T02:39:40;16.10;99.90
3051;DHT22;1535;51.098;6.414;2022-10-28T02:42:11;16.10;99.90
3051;DHT22;1535;51.098;6.414;2022-10-28T02:44:45;16.00;99.90
3051;DHT22;1535;51.098;6.414;2022-10-28T02:47:17;16.00;99.90
3051;DHT22;1535;51.098;6.414;2022-10-28T02:49:51;16.00;99.90
3051;DHT22;1535;51.098;6.414;2022-10-28T02:52:20;16.00;99.90
3051;DHT22;1535;51.098;6.414;2022-10-28T02:54:53;16.00;99.90
3051;DHT22;1535;51.098;6.414;2022-10-28T02:57:23;16.00;99.90
3051;DHT22;1535;51.098;6.414;2022-10-28T03:00:06;16.00;99.90
3051;DHT22;1535;51.098;6.414;2022-10-28T03:02:35;16.00;99.90
3051;DHT22;1535;51.098;6.414;2022-10-28T03:05:04;15.90;99.90
3051;DHT22;1535;51.098;6.414;2022-10-28T03:07:32;15.90;99.90
3051;DHT22;1535;51.098;6.414;2022-10-28T03:09:58;15.90;99.90
3051;DHT22;1535;51.098;6.414;2022-10-28T03:12:25;15.90;99.90
3051;DHT22;1535;51.098;6.414;2022-10-28T03:14:52;15.90;99.90
3051;DHT22;1535;51.098;6.414;2022-10-28T03:17:19;15.80;99.90
3051;DHT22;1535;51.098;6.414;2022-10-28T03:19:46;15.80;99.90
3051;DHT22;1535;51.098;6.414;2022-10-28T03:22:15;15.80;99.90
3051;DHT22;1535;51.098;6.414;2022-10-28T03:24:42;15.80;99.90
3051;DHT22;1535;51.098;6.414;2022-10-28T03:27:09;15.80;99.90
3051;DHT22;1535;51.098;6.414;2022-10-28T03:29:36;15.70;99.90
3051;DHT22;1535;51.098;6.414;2022-10-28T03:32:03;15.80;99.90
3051;DHT22;1535;51.098;6.414;2022-10-28T03:34:30;15.80;99.90
3051;DHT22;1535;51.098;6.414;2022-10-28T03:36:58;15.80;99.90
3051;DHT22;1535;51.098;6.414;2022-10-28T03:39:27;15.80;99.90
3051;DHT22;1535;51.098;6.414;2022-10-28T03:41:54;15.80;99.90
3051;DHT22;1535;51.098;6.414;2022-10-28T03:44:21;15.80;99.90
3051;DHT22;1535;51.098;6.414;2022-10-28T03:46:48;15.80;99.90
3051;DHT22;1535;51.098;6.414;2022-10-28T03:49:16;15.80;99.90
3051;DHT22;1535;51.098;6.414;2022-10-28T03:51:43;15.80;99.90
3051;DHT22;1535;51.098;6.414;2022-10-28T03:54:10;15.80;99.90
3051;DHT22;1535;51.098;6.414;2022-10-28T03:56:38;15.80;99.90
3051;DHT22;1535;51.098;6.414;2022-10-28T03:59:07;15.70;99.90
3051;DHT22;1535;51.098;6.414;2022-10-28T04:01:34;15.70;99.90
3051;DHT22;1535;51.098;6.414;2022-10-28T04:04:01;15.70;99.90
3051;DHT22;1535;51.098;6.414;2022-10-28T04:06:29;15.70;99.90
3051;DHT22;1535;51.098;6.414;2022-10-28T04:08:56;15.70;99.90
3051;DHT22;1535;51.098;6.414;2022-10-28T04:11:23;15.70;99.90
3051;DHT22;1535;51.098;6.414;2022-10-28T04:13:51;15.70;99.90
3051;DHT22;1535;51.098;6.414;2022-10-28T04:16:18;15.70;99.90
3051;DHT22;1535;51.098;6.414;2022-10-28T04:18:45;15.60;99.90
3051;DHT22;1535;51.098;6.414;2022-10-28T04:21:12;15.60;99.90
3051;DHT22;1535;51.098;6.414;2022-10-28T04:23:39;15.70;99.90
3051;DHT22;1535;51.098;6.414;2022-10-28T04:26:06;15.70;99.90
3051;DHT22;1535;51.098;6.414;2022-10-28T04:28:36;15.70;99.90
3051;DHT22;1535;51.098;6.414;2022-10-28T04:31:04;15.60;99.90
3051;DHT22;1535;51.098;6.414;2022-10-28T04:33:31;15.60;99.90
3051;DHT22;1535;51.098;6.414;2022-10-28T04:35:58;15.60;99.90
3051;DHT22;1535;51.098;6.414;2022-10-28T04:38:25;15.60;99.90
3051;DHT22;1535;51.098;6.414;2022-10-28T04:40:52;15.70;99.90
3051;DHT22;1535;51.098;6.414;2022-10-28T04:43:19;15.60;99.90
3051;DHT22;1535;51.098;6.414;2022-10-28T04:45:46;15.70;99.90
3051;DHT22;1535;51.098;6.414;2022-10-28T04:48:14;15.70;99.90
3051;DHT22;1535;51.098;6.414;2022-10-28T04:50:42;15.70;99.90
3051;DHT22;1535;51.098;6.414;2022-10-28T04:53:11;15.70;99.90
3051;DHT22;1535;51.098;6.414;2022-10-28T04:55:38;15.70;99.90
3051;DHT22;1535;51.098;6.414;2022-10-28T04:58:06;15.70;99.90
3051;DHT22;1535;51.098;6.414;2022-10-28T05:00:32;15.80;99.90
3051;DHT22;1535;51.098;6.414;2022-10-28T05:03:01;15.80;99.90
3051;DHT22;1535;51.098;6.414;2022-10-28T05:05:31;15.90;99.90
3051;DHT22;1535;51.098;6.414;2022-10-28T05:07:58;15.90;99.90
3051;DHT22;1535;51.098;6.414;2022-10-28T05:10:25;15.90;99.90
3051;DHT22;1535;51.098;6.414;2022-10-28T05:12:52;15.80;99.90
3051;DHT22;1535;51.098;6.414;2022-10-28T05:15:20;15.80;99.90
3051;DHT22;1535;51.098;6.414;2022-10-28T05:17:47;15.80;99.90
3051;DHT22;1535;51.098;6.414;2022-10-28T05:20:15;15.80;99.90
3051;DHT22;1535;51.098;6.414;2022-10-28T05:22:48;15.80;99.90
3051;DHT22;1535;51.098;6.414;2022-10-28T05:25:17;15.80;99.90
3051;DHT22;1535;51.098;6.414;2022-10-28T05:27:45;15.80;99.90
3051;DHT22;1535;51.098;6.414;2022-10-28T05:30:12;15.80;99.90
3051;DHT22;1535;51.098;6.414;2022-10-28T05:32:40;15.70;99.90
3051;DHT22;1535;51.098;6.414;2022-10-28T05:35:07;15.70;99.90
3051;DHT22;1535;51.098;6.414;2022-10-28T05:37:35;15.70;99.90
3051;DHT22;1535;51.098;6.414;2022-10-28T05:40:03;15.70;99.90
3051;DHT22;1535;51.098;6.414;2022-10-28T05:42:30;15.70;99.90
3051;DHT22;1535;51.098;6.414;2022-10-28T05:44:57;15.60;99.90
3051;DHT22;1535;51.098;6.414;2022-10-28T05:47:26;15.70;99.90
3051;DHT22;1535;51.098;6.414;2022-10-28T05:49:52;15.60;99.90
3051;DHT22;1535;51.098;6.414;2022-10-28T05:52:19;15.70;99.90
3051;DHT22;1535;51.098;6.414;2022-10-28T05:54:47;15.60;99.90
3051;DHT22;1535;51.098;6.414;2022-10-28T05:57:15;15.60;99.90
3051;DHT22;1535;51.098;6.414;2022-10-28T05:59:42;15.60;99.90
3051;DHT22;1535;51.098;6.414;2022-10-28T06:02:12;15.50;99.90
3051;DHT22;1535;51.098;6.414;2022-10-28T06:04:39;15.50;99.90
3051;DHT22;1535;51.098;6.414;2022-10-28T06:07:07;15.50;99.90
3051;DHT22;1535;51.098;6.414;2022-10-28T06:12:00;15.50;99.90
3051;DHT22;1535;51.098;6.414;2022-10-28T06:14:28;15.50;99.90
3051;DHT22;1535;51.098;6.414;2022-10-28T06:16:55;15.40;99.90
3051;DHT22;1535;51.098;6.414;2022-10-28T06:19:22;15.40;99.90
3051;DHT22;1535;51.098;6.414;2022-10-28T06:21:48;15.40;99.90
3051;DHT22;1535;51.098;6.414;2022-10-28T06:24:15;15.40;99.90
3051;DHT22;1535;51.098;6.414;2022-10-28T06:26:42;15.50;99.90
3051;DHT22;1535;51.098;6.414;2022-10-28T06:29:10;15.50;99.90
3051;DHT22;1535;51.098;6.414;2022-10-28T06:31:40;15.50;99.90
3051;DHT22;1535;51.098;6.414;2022-10-28T06:34:08;15.50;99.90
3051;DHT22;1535;51.098;6.414;2022-10-28T06:36:35;15.50;99.90
3051;DHT22;1535;51.098;6.414;2022-10-28T06:39:03;15.50;99.90
3051;DHT22;1535;51.098;6.414;2022-10-28T06:41:31;15.50;99.90
3051;DHT22;1535;51.098;6.414;2022-10-28T06:43:58;15.50;99.90
3051;DHT22;1535;51.098;6.414;2022-10-28T06:46:24;15.60;99.90
3051;DHT22;1535;51.098;6.414;2022-10-28T06:48:54;15.60;99.90
3051;DHT22;1535;51.098;6.414;2022-10-28T06:51:21;15.60;99.90
3051;DHT22;1535;51.098;6.414;2022-10-28T06:53:49;15.60;99.90
3051;DHT22;1535;51.098;6.414;2022-10-28T06:56:16;15.60;99.90
3051;DHT22;1535;51.098;6.414;2022-10-28T06:58:43;15.60;99.90
3051;DHT22;1535;51.098;6.414;2022-10-28T07:01:10;15.60;99.90
3051;DHT22;1535;51.098;6.414;2022-10-28T07:03:38;15.70;99.90
3051;DHT22;1535;51.098;6.414;2022-10-28T07:06:07;15.80;99.90
3051;DHT22;1535;51.098;6.414;2022-10-28T07:08:34;15.90;99.90
3051;DHT22;1535;51.098;6.414;2022-10-28T07:11:01;15.90;99.90
3051;DHT22;1535;51.098;6.414;2022-10-28T07:13:28;16.00;99.90
3051;DHT22;1535;51.098;6.414;2022-10-28T07:15:56;16.20;99.90
3051;DHT22;1535;51.098;6.414;2022-10-28T07:18:25;16.30;99.90
3051;DHT22;1535;51.098;6.414;2022-10-28T07:20:52;16.30;99.90
3051;DHT22;1535;51.098;6.414;2022-10-28T07:23:20;16.40;99.90
3051;DHT22;1535;51.098;6.414;2022-10-28T07:25:51;16.50;99.90
3051;DHT22;1535;51.098;6.414;2022-10-28T07:28:19;16.50;99.90
3051;DHT22;1535;51.098;6.414;2022-10-28T07:30:47;16.60;99.90
3051;DHT22;1535;51.098;6.414;2022-10-28T07:33:14;16.70;99.90
3051;DHT22;1535;51.098;6.414;2022-10-28T07:35:41;16.70;99.90
3051;DHT22;1535;51.098;6.414;2022-10-28T07:38:09;16.80;99.90
3051;DHT22;1535;51.098;6.414;2022-10-28T07:40:37;16.80;99.90
3051;DHT22;1535;51.098;6.414;2022-10-28T07:43:04;17.00;99.90
3051;DHT22;1535;51.098;6.414;2022-10-28T07:45:30;17.10;99.90
3051;DHT22;1535;51.098;6.414;2022-10-28T07:47:57;17.10;99.90
3051;DHT22;1535;51.098;6.414;2022-10-28T07:50:24;17.20;99.90
3051;DHT22;1535;51.098;6.414;2022-10-28T07:52:51;17.20;99.90
3051;DHT22;1535;51.098;6.414;2022-10-28T07:55:17;17.20;99.90
3051;DHT22;1535;51.098;6.414;2022-10-28T07:57:47;17.30;99.90
3051;DHT22;1535;51.098;6.414;2022-10-28T08:00:14;17.40;99.90
3051;DHT22;1535;51.098;6.414;2022-10-28T08:02:41;17.40;99.90
3051;DHT22;1535;51.098;6.414;2022-10-28T08:05:08;17.40;99.90
3051;DHT22;1535;51.098;6.414;2022-10-28T08:07:35;17.40;99.90
3051;DHT22;1535;51.098;6.414;2022-10-28T08:10:03;17.40;99.90
3051;DHT22;1535;51.098;6.414;2022-10-28T08:12:29;17.40;99.90
3051;DHT22;1535;51.098;6.414;2022-10-28T08:14:57;17.50;99.90
3051;DHT22;1535;51.098;6.414;2022-10-28T08:17:24;17.50;99.90
3051;DHT22;1535;51.098;6.414;2022-10-28T08:19:51;17.60;99.90
3051;DHT22;1535;51.098;6.414;2022-10-28T08:22:18;17.60;99.90
3051;DHT22;1535;51.098;6.414;2022-10-28T08:24:45;17.70;99.90
3051;DHT22;1535;51.098;6.414;2022-10-28T08:27:12;17.80;99.90
3051;DHT22;1535;51.098;6.414;2022-10-28T08:29:39;17.90;99.90
3051;DHT22;1535;51.098;6.414;2022-10-28T08:32:08;18.00;99.90
3051;DHT22;1535;51.098;6.414;2022-10-28T08:34:35;18.10;99.90
3051;DHT22;1535;51.098;6.414;2022-10-28T08:37:01;18.20;99.90
3051;DHT22;1535;51.098;6.414;2022-10-28T08:39:28;18.30;99.90
3051;DHT22;1535;51.098;6.414;2022-10-28T08:42:04;18.40;99.90
3051;DHT22;1535;51.098;6.414;2022-10-28T08:45:00;18.50;99.90
3051;DHT22;1535;51.098;6.414;2022-10-28T08:47:37;18.70;99.90
3051;DHT22;1535;51.098;6.414;2022-10-28T08:50:12;18.70;99.90
3051;DHT22;1535;51.098;6.414;2022-10-28T08:52:44;18.80;99.90
3051;DHT22;1535;51.098;6.414;2022-10-28T08:55:14;19.00;99.90
3051;DHT22;1535;51.098;6.414;2022-10-28T08:57:45;19.20;99.90
3051;DHT22;1535;51.098;6.414;2022-10-28T09:00:19;19.40;99.90
3051;DHT22;1535;51.098;6.414;2022-10-28T09:03:13;19.60;99.90
3051;DHT22;1535;51.098;6.414;2022-10-28T09:05:43;19.80;99.90
3051;DHT22;1535;51.098;6.414;2022-10-28T09:08:18;19.90;99.90
3051;DHT22;1535;51.098;6.414;2022-10-28T09:11:00;20.10;99.90
3051;DHT22;1535;51.098;6.414;2022-10-28T09:13:38;20.30;99.90
3051;DHT22;1535;51.098;6.414;2022-10-28T09:16:15;20.50;99.90
3051;DHT22;1535;51.098;6.414;2022-10-28T09:18:51;20.70;99.90
3051;DHT22;1535;51.098;6.414;2022-10-28T09:21:21;20.80;99.90
3051;DHT22;1535;51.098;6.414;2022-10-28T09:23:54;20.90;99.90
3051;DHT22;1535;51.098;6.414;2022-10-28T09:26:34;21.10;99.90
3051;DHT22;1535;51.098;6.414;2022-10-28T09:29:20;21.20;99.90
3051;DHT22;1535;51.098;6.414;2022-10-28T09:31:54;21.30;99.90
3051;DHT22;1535;51.098;6.414;2022-10-28T09:34:32;21.30;99.90
3051;DHT22;1535;51.098;6.414;2022-10-28T09:37:05;21.40;99.90
3051;DHT22;1535;51.098;6.414;2022-10-28T09:39:41;21.70;99.90
3051;DHT22;1535;51.098;6.414;2022-10-28T09:42:13;21.70;99.90
3051;DHT22;1535;51.098;6.414;2022-10-28T09:44:44;21.80;99.90
3051;DHT22;1535;51.098;6.414;2022-10-28T09:47:16;22.10;99.90
3051;DHT22;1535;51.098;6.414;2022-10-28T09:49:47;22.10;99.90
3051;DHT22;1535;51.098;6.414;2022-10-28T09:52:18;22.00;99.90
3051;DHT22;1535;51.098;6.414;2022-10-28T09:54:49;22.10;99.90
3051;DHT22;1535;51.098;6.414;2022-10-28T09:57:17;22.20;99.90
3051;DHT22;1535;51.098;6.414;2022-10-28T09:59:44;22.40;99.90
3051;DHT22;1535;51.098;6.414;2022-10-28T10:02:26;22.50;99.90
3051;DHT22;1535;51.098;6.414;2022-10-28T10:04:56;22.70;99.90
3051;DHT22;1535;51.098;6.414;2022-10-28T10:07:30;22.80;99.90
3051;DHT22;1535;51.098;6.414;2022-10-28T10:09:59;22.90;99.90
3051;DHT22;1535;51.098;6.414;2022-10-28T10:12:28;23.00;99.90
3051;DHT22;1535;51.098;6.414;2022-10-28T10:14:57;23.20;99.90
3051;DHT22;1535;51.098;6.414;2022-10-28T10:17:28;23.30;99.90
3051;DHT22;1535;51.098;6.414;2022-10-28T10:20:02;23.50;99.90
3051;DHT22;1535;51.098;6.414;2022-10-28T10:22:30;23.90;99.90
3051;DHT22;1535;51.098;6.414;2022-10-28T10:24:57;24.50;99.90
3051;DHT22;1535;51.098;6.414;2022-10-28T10:27:25;24.80;99.90
3051;DHT22;1535;51.098;6.414;2022-10-28T10:29:53;25.10;99.90
3051;DHT22;1535;51.098;6.414;2022-10-28T10:32:24;25.30;99.90
3051;DHT22;1535;51.098;6.414;2022-10-28T10:34:57;25.10;99.90
3051;DHT22;1535;51.098;6.414;2022-10-28T10:37:28;25.50;99.90
3051;DHT22;1535;51.098;6.414;2022-10-28T10:40:06;26.10;99.90
3051;DHT22;1535;51.098;6.414;2022-10-28T10:42:43;26.30;99.90
3051;DHT22;1535;51.098;6.414;2022-10-28T10:45:20;26.60;99.90
3051;DHT22;1535;51.098;6.414;2022-10-28T10:47:47;26.80;99.90
3051;DHT22;1535;51.098;6.414;2022-10-28T10:50:22;26.40;99.90
3051;DHT22;1535;51.098;6.414;2022-10-28T10:52:53;26.00;99.90
3051;DHT22;1535;51.098;6.414;2022-10-28T10:55:26;26.10;99.90
3051;DHT22;1535;51.098;6.414;2022-10-28T10:57:55;26.50;99.90
3051;DHT22;1535;51.098;6.414;2022-10-28T11:00:27;27.00;99.90
3051;DHT22;1535;51.098;6.414;2022-10-28T11:02:56;27.40;99.90
3051;DHT22;1535;51.098;6.414;2022-10-28T11:05:24;28.20;99.90
3051;DHT22;1535;51.098;6.414;2022-10-28T11:07:52;28.20;99.90
3051;DHT22;1535;51.098;6.414;2022-10-28T11:10:23;28.40;99.90
3051;DHT22;1535;51.098;6.414;2022-10-28T11:12:52;28.70;99.90
3051;DHT22;1535;51.098;6.414;2022-10-28T11:15:22;28.90;99.90
3051;DHT22;1535;51.098;6.414;2022-10-28T11:17:58;28.80;99.90
3051;DHT22;1535;51.098;6.414;2022-10-28T11:20:26;29.00;99.90
3051;DHT22;1535;51.098;6.414;2022-10-28T11:23:08;28.60;99.90
3051;DHT22;1535;51.098;6.414;2022-10-28T11:25:40;28.60;99.90
3051;DHT22;1535;51.098;6.414;2022-10-28T11:28:30;28.90;99.90
3051;DHT22;1535;51.098;6.414;2022-10-28T11:31:10;29.30;99.90
3051;DHT22;1535;51.098;6.414;2022-10-28T11:33:45;29.80;99.90
3051;DHT22;1535;51.098;6.414;2022-10-28T11:36:21;30.20;99.90
3051;DHT22;1535;51.098;6.414;2022-10-28T11:39:04;30.20;99.90
3051;DHT22;1535;51.098;6.414;2022-10-28T11:41:42;30.30;99.90
3051;DHT22;1535;51.098;6.414;2022-10-28T11:44:21;30.50;99.90
3051;DHT22;1535;51.098;6.414;2022-10-28T11:47:00;30.90;99.90
3051;DHT22;1535;51.098;6.414;2022-10-28T11:49:43;31.00;99.90
3051;DHT22;1535;51.098;6.414;2022-10-28T11:52:23;31.00;99.90
3051;DHT22;1535;51.098;6.414;2022-10-28T11:55:02;31.30;99.90
3051;DHT22;1535;51.098;6.414;2022-10-28T11:57:40;31.80;99.90
3051;DHT22;1535;51.098;6.414;2022-10-28T12:00:26;31.40;99.90
3051;DHT22;1535;51.098;6.414;2022-10-28T12:03:10;31.00;98.90
3051;DHT22;1535;51.098;6.414;2022-10-28T12:05:49;30.70;99.20
3051;DHT22;1535;51.098;6.414;2022-10-28T12:08:28;30.30;99.90
3051;DHT22;1535;51.098;6.414;2022-10-28T12:11:09;30.30;99.40
3051;DHT22;1535;51.098;6.414;2022-10-28T12:13:44;29.80;99.10
3051;DHT22;1535;51.098;6.414;2022-10-28T12:16:16;29.20;99.90
3051;DHT22;1535;51.098;6.414;2022-10-28T12:18:51;29.40;99.40
3051;DHT22;1535;51.098;6.414;2022-10-28T12:21:24;29.10;99.10
3051;DHT22;1535;51.098;6.414;2022-10-28T12:23:54;28.40;98.80
3051;DHT22;1535;51.098;6.414;2022-10-28T12:26:32;28.40;99.20
3051;DHT22;1535;51.098;6.414;2022-10-28T12:29:02;28.20;98.70
3051;DHT22;1535;51.098;6.414;2022-10-28T12:31:33;28.10;99.00
3051;DHT22;1535;51.098;6.414;2022-10-28T12:34:04;27.90;99.90
3051;DHT22;1535;51.098;6.414;2022-10-28T12:36:37;27.50;99.40
3051;DHT22;1535;51.098;6.414;2022-10-28T12:39:14;27.70;99.90
3051;DHT22;1535;51.098;6.414;2022-10-28T12:41:49;27.90;99.90
3051;DHT22;1535;51.098;6.414;2022-10-28T12:44:19;27.80;98.90
3051;DHT22;1535;51.098;6.414;2022-10-28T12:46:55;27.90;99.40
3051;DHT22;1535;51.098;6.414;2022-10-28T12:49:30;28.00;99.00
3051;DHT22;1535;51.098;6.414;2022-10-28T12:52:08;28.10;98.90
3051;DHT22;1535;51.098;6.414;2022-10-28T12:54:48;27.90;99.70
3051;DHT22;1535;51.098;6.414;2022-10-28T12:57:20;28.30;98.80
3051;DHT22;1535;51.098;6.414;2022-10-28T12:59:51;28.20;99.30
3051;DHT22;1535;51.098;6.414;2022-10-28T13:02:24;28.30;99.20
3051;DHT22;1535;51.098;6.414;2022-10-28T13:04:51;28.20;99.70
3051;DHT22;1535;51.098;6.414;2022-10-28T13:07:34;28.30;99.70
3051;DHT22;1535;51.098;6.414;2022-10-28T13:10:14;28.50;99.90
3051;DHT22;1535;51.098;6.414;2022-10-28T13:13:03;27.90;99.90
3051;DHT22;1535;51.098;6.414;2022-10-28T13:15:49;27.50;99.90
3051;DHT22;1535;51.098;6.414;2022-10-28T13:21:37;27.60;99.90
3051;DHT22;1535;51.098;6.414;2022-10-28T13:24:15;27.60;99.90
3051;DHT22;1535;51.098;6.414;2022-10-28T13:26:43;27.80;99.90
3051;DHT22;1535;51.098;6.414;2022-10-28T13:29:19;27.90;99.90
3051;DHT22;1535;51.098;6.414;2022-10-28T13:31:46;27.80;99.90
3051;DHT22;1535;51.098;6.414;2022-10-28T13:34:15;27.40;99.90
3051;DHT22;1535;51.098;6.414;2022-10-28T13:36:45;27.30;99.90
3051;DHT22;1535;51.098;6.414;2022-10-28T13:39:24;27.40;99.90
3051;DHT22;1535;51.098;6.414;2022-10-28T13:42:30;27.30;99.90
3051;DHT22;1535;51.098;6.414;2022-10-28T13:44:59;27.00;99.90
3051;DHT22;1535;51.098;6.414;2022-10-28T13:47:28;26.60;99.90
3051;DHT22;1535;51.098;6.414;2022-10-28T13:56:28;26.10;99.90
3051;DHT22;1535;51.098;6.414;2022-10-28T13:58:58;26.20;99.90
3051;DHT22;1535;51.098;6.414;2022-10-28T14:01:49;26.10;99.90
3051;DHT22;1535;51.098;6.414;2022-10-28T14:04:22;25.80;99.90
3051;DHT22;1535;51.098;6.414;2022-10-28T14:07:03;25.60;99.90
3051;DHT22;1535;51.098;6.414;2022-10-28T14:09:32;25.50;99.90
3051;DHT22;1535;51.098;6.414;2022-10-28T14:12:10;25.30;99.90
3051;DHT22;1535;51.098;6.414;2022-10-28T14:14:52;25.30;99.90
3051;DHT22;1535;51.098;6.414;2022-10-28T14:17:24;25.20;99.90
3051;DHT22;1535;51.098;6.414;2022-10-28T14:19:53;25.10;99.90
3051;DHT22;1535;51.098;6.414;2022-10-28T14:22:29;25.00;99.90
3051;DHT22;1535;51.098;6.414;2022-10-28T14:24:58;25.00;99.90
3051;DHT22;1535;51.098;6.414;2022-10-28T14:27:30;25.00;99.90
3051;DHT22;1535;51.098;6.414;2022-10-28T14:30:14;25.00;99.90
3051;DHT22;1535;51.098;6.414;2022-10-28T14:32:49;24.80;99.90
3051;DHT22;1535;51.098;6.414;2022-10-28T14:35:27;24.80;99.90
3051;DHT22;1535;51.098;6.414;2022-10-28T14:41:04;24.80;99.90
3051;DHT22;1535;51.098;6.414;2022-10-28T14:43:42;24.70;99.90
3051;DHT22;1535;51.098;6.414;2022-10-28T14:46:24;24.50;99.90
3051;DHT22;1535;51.098;6.414;2022-10-28T14:48:56;24.40;99.90
3051;DHT22;1535;51.098;6.414;2022-10-28T14:51:26;24.20;99.90
3051;DHT22;1535;51.098;6.414;2022-10-28T14:53:57;24.20;99.90
3051;DHT22;1535;51.098;6.414;2022-10-28T14:56:27;24.10;99.90
3051;DHT22;1535;51.098;6.414;2022-10-28T14:58:57;23.80;99.90
3051;DHT22;1535;51.098;6.414;2022-10-28T15:01:26;23.80;99.90
3051;DHT22;1535;51.098;6.414;2022-10-28T15:03:57;23.70;99.90
3051;DHT22;1535;51.098;6.414;2022-10-28T15:06:31;23.60;99.90
3051;DHT22;1535;51.098;6.414;2022-10-28T15:09:04;23.40;99.90
3051;DHT22;1535;51.098;6.414;2022-10-28T15:11:32;23.30;99.90
3051;DHT22;1535;51.098;6.414;2022-10-28T15:14:12;23.20;99.90
3051;DHT22;1535;51.098;6.414;2022-10-28T15:16:45;23.10;99.90
3051;DHT22;1535;51.098;6.414;2022-10-28T15:19:17;22.90;99.90
3051;DHT22;1535;51.098;6.414;2022-10-28T15:21:59;22.80;99.90
3051;DHT22;1535;51.098;6.414;2022-10-28T15:24:27;22.80;99.90
3051;DHT22;1535;51.098;6.414;2022-10-28T15:26:55;22.70;99.90
3051;DHT22;1535;51.098;6.414;2022-10-28T15:29:22;22.60;99.90
3051;DHT22;1535;51.098;6.414;2022-10-28T15:32:12;22.60;99.90
3051;DHT22;1535;51.098;6.414;2022-10-28T15:34:42;22.30;99.90
3051;DHT22;1535;51.098;6.414;2022-10-28T15:37:09;22.30;99.90
3051;DHT22;1535;51.098;6.414;2022-10-28T15:39:37;22.30;99.90
3051;DHT22;1535;51.098;6.414;2022-10-28T15:42:28;22.20;99.90
3051;DHT22;1535;51.098;6.414;2022-10-28T15:44:57;22.20;99.90
3051;DHT22;1535;51.098;6.414;2022-10-28T15:47:28;22.10;99.90
3051;DHT22;1535;51.098;6.414;2022-10-28T15:50:02;22.00;99.90
3051;DHT22;1535;51.098;6.414;2022-10-28T15:52:35;21.90;99.90
3051;DHT22;1535;51.098;6.414;2022-10-28T15:57:46;21.70;99.90
3051;DHT22;1535;51.098;6.414;2022-10-28T16:00:22;21.60;99.90
3051;DHT22;1535;51.098;6.414;2022-10-28T16:02:54;21.50;99.90
3051;DHT22;1535;51.098;6.414;2022-10-28T16:05:53;21.40;99.90
3051;DHT22;1535;51.098;6.414;2022-10-28T16:08:25;21.20;99.90
3051;DHT22;1535;51.098;6.414;2022-10-28T16:10:55;21.10;99.90
3051;DHT22;1535;51.098;6.414;2022-10-28T16:13:26;20.90;99.90
3051;DHT22;1535;51.098;6.414;2022-10-28T16:15:56;20.90;99.90
3051;DHT22;1535;51.098;6.414;2022-10-28T16:18:26;20.80;99.90
3051;DHT22;1535;51.098;6.414;2022-10-28T16:20:56;20.70;99.90
3051;DHT22;1535;51.098;6.414;2022-10-28T16:23:27;20.60;99.90
3051;DHT22;1535;51.098;6.414;2022-10-28T16:25:55;20.50;99.90
3051;DHT22;1535;51.098;6.414;2022-10-28T16:28:23;20.40;99.90
3051;DHT22;1535;51.098;6.414;2022-10-28T16:30:53;20.40;99.90
3051;DHT22;1535;51.098;6.414;2022-10-28T16:33:26;20.30;99.90
3051;DHT22;1535;51.098;6.414;2022-10-28T16:35:54;20.20;99.90
3051;DHT22;1535;51.098;6.414;2022-10-28T16:38:21;20.10;99.90
3051;DHT22;1535;51.098;6.414;2022-10-28T16:40:48;20.10;99.90
3051;DHT22;1535;51.098;6.414;2022-10-28T16:43:17;20.00;99.90
3051;DHT22;1535;51.098;6.414;2022-10-28T16:45:44;19.90;99.90
3051;DHT22;1535;51.098;6.414;2022-10-28T16:48:12;19.90;99.90
3051;DHT22;1535;51.098;6.414;2022-10-28T16:50:42;19.80;99.90